sensor_id;sensor_type;location;lat;lon;timestamp;P1;durP1;ratioP1;P2;durP2;ratioP2
8650;SDS011;4363;52.346;14.516;2023-12-20T00:01:29;428.23;;;162.27;;
8650;SDS011;4363;52.346;14.516;2023-12-20T00:03:55;414.67;;;155.20;;
8650;SDS011;4363;52.346;14.516;2023-12-20T00:06:21;427.00;;;158.70;;
8650;SDS011;4363;52.346;14.516;2023-12-20T00:08:47;465.30;;;174.87;;
8650;SDS011;4363;52.346;14.516;2023-12-20T00:11:13;404.30;;;150.50;;
8650;SDS011;4363;52.346;14.516;2023-12-20T00:13:39;460.87;;;171.53;;
8650;SDS011;4363;52.346;14.516;2023-12-20T00:16:05;417.87;;;154.37;;
8650;SDS011;4363;52.346;14.516;2023-12-20T00:18:31;453.57;;;174.00;;
8650;SDS011;4363;52.346;14.516;2023-12-20T00:20:57;442.27;;;163.57;;
8650;SDS011;4363;52.346;14.516;2023-12-20T00:23:23;432.70;;;159.07;;
8650;SDS011;4363;52.346;14.516;2023-12-20T00:25:49;433.07;;;162.33;;
8650;SDS011;4363;52.346;14.516;2023-12-20T00:28:15;396.23;;;147.20;;
8650;SDS011;4363;52.346;14.516;2023-12-20T00:30:41;436.73;;;163.70;;
8650;SDS011;4363;52.346;14.516;2023-12-20T00:33:07;483.00;;;183.20;;
8650;SDS011;4363;52.346;14.516;2023-12-20T00:35:33;421.50;;;155.33;;
8650;SDS011;4363;52.346;14.516;2023-12-20T00:37:59;420.37;;;156.27;;
8650;SDS011;4363;52.346;14.516;2023-12-20T00:40:25;411.50;;;154.70;;
8650;SDS011;4363;52.346;14.516;2023-12-20T00:42:51;418.27;;;155.30;;
8650;SDS011;4363;52.346;14.516;2023-12-20T00:45:17;464.33;;;176.27;;
8650;SDS011;4363;52.346;14.516;2023-12-20T00:47:43;454.43;;;170.83;;
8650;SDS011;4363;52.346;14.516;2023-12-20T00:50:09;493.47;;;188.63;;
8650;SDS011;4363;52.346;14.516;2023-12-20T00:52:35;431.03;;;166.20;;
8650;SDS011;4363;52.346;14.516;2023-12-20T00:55:01;412.43;;;153.83;;
8650;SDS011;4363;52.346;14.516;2023-12-20T00:57:27;424.80;;;161.13;;
8650;SDS011;4363;52.346;14.516;2023-12-20T00:59:53;459.30;;;174.67;;
8650;SDS011;4363;52.346;14.516;2023-12-20T01:02:18;429.20;;;159.87;;
8650;SDS011;4363;52.346;14.516;2023-12-20T01:04:44;448.30;;;166.57;;
8650;SDS011;4363;52.346;14.516;2023-12-20T01:07:10;427.37;;;159.00;;
8650;SDS011;4363;52.346;14.516;2023-12-20T01:09:36;441.30;;;164.53;;
8650;SDS011;4363;52.346;14.516;2023-12-20T01:12:02;432.83;;;158.80;;
8650;SDS011;4363;52.346;14.516;2023-12-20T01:14:28;467.80;;;180.47;;
8650;SDS011;4363;52.346;14.516;2023-12-20T01:16:54;444.13;;;164.23;;
8650;SDS011;4363;52.346;14.516;2023-12-20T01:19:20;447.17;;;164.87;;
8650;SDS011;4363;52.346;14.516;2023-12-20T01:21:46;438.90;;;160.40;;
8650;SDS011;4363;52.346;14.516;2023-12-20T01:24:12;409.13;;;152.13;;
8650;SDS011;4363;52.346;14.516;2023-12-20T01:26:38;428.03;;;156.20;;
8650;SDS011;4363;52.346;14.516;2023-12-20T01:29:04;437.97;;;166.33;;
8650;SDS011;4363;52.346;14.516;2023-12-20T01:31:30;441.77;;;165.97;;
8650;SDS011;4363;52.346;14.516;2023-12-20T01:33:56;434.37;;;159.97;;
8650;SDS011;4363;52.346;14.516;2023-12-20T01:36:22;437.90;;;165.80;;
8650;SDS011;4363;52.346;14.516;2023-12-20T01:38:48;420.00;;;155.27;;
8650;SDS011;4363;52.346;14.516;2023-12-20T01:41:14;414.03;;;153.73;;
8650;SDS011;4363;52.346;14.516;2023-12-20T01:43:40;414.97;;;156.10;;
8650;SDS011;4363;52.346;14.516;2023-12-20T01:46:06;442.90;;;166.13;;
8650;SDS011;4363;52.346;14.516;2023-12-20T01:48:32;425.63;;;160.23;;
8650;SDS011;4363;52.346;14.516;2023-12-20T01:51:01;436.67;;;165.10;;
8650;SDS011;4363;52.346;14.516;2023-12-20T01:53:27;412.73;;;156.50;;
8650;SDS011;4363;52.346;14.516;2023-12-20T01:55:54;435.27;;;162.97;;
8650;SDS011;4363;52.346;14.516;2023-12-20T01:58:20;444.20;;;170.73;;
8650;SDS011;4363;52.346;14.516;2023-12-20T02:00:47;445.23;;;167.73;;
8650;SDS011;4363;52.346;14.516;2023-12-20T02:03:13;425.93;;;160.73;;
8650;SDS011;4363;52.346;14.516;2023-12-20T02:05:39;425.50;;;159.07;;
8650;SDS011;4363;52.346;14.516;2023-12-20T02:08:06;417.97;;;156.87;;
8650;SDS011;4363;52.346;14.516;2023-12-20T02:10:32;453.77;;;171.07;;
8650;SDS011;4363;52.346;14.516;2023-12-20T02:12:58;441.73;;;164.67;;
8650;SDS011;4363;52.346;14.516;2023-12-20T02:15:24;443.93;;;168.30;;
8650;SDS011;4363;52.346;14.516;2023-12-20T02:17:50;421.00;;;159.27;;
8650;SDS011;4363;52.346;14.516;2023-12-20T02:20:16;453.87;;;169.97;;
8650;SDS011;4363;52.346;14.516;2023-12-20T02:25:45;424.73;;;158.13;;
8650;SDS011;4363;52.346;14.516;2023-12-20T02:28:11;488.90;;;186.97;;
8650;SDS011;4363;52.346;14.516;2023-12-20T02:30:37;425.90;;;159.47;;
8650;SDS011;4363;52.346;14.516;2023-12-20T02:33:03;426.43;;;156.40;;
8650;SDS011;4363;52.346;14.516;2023-12-20T02:35:33;464.40;;;176.00;;
8650;SDS011;4363;52.346;14.516;2023-12-20T02:37:59;447.20;;;165.80;;
8650;SDS011;4363;52.346;14.516;2023-12-20T02:40:25;484.33;;;181.93;;
8650;SDS011;4363;52.346;14.516;2023-12-20T02:42:51;446.77;;;166.17;;
8650;SDS011;4363;52.346;14.516;2023-12-20T02:45:17;447.73;;;167.17;;
8650;SDS011;4363;52.346;14.516;2023-12-20T02:47:43;451.93;;;176.23;;
8650;SDS011;4363;52.346;14.516;2023-12-20T02:50:09;467.80;;;180.10;;
8650;SDS011;4363;52.346;14.516;2023-12-20T02:52:35;459.37;;;176.43;;
8650;SDS011;4363;52.346;14.516;2023-12-20T02:55:01;424.60;;;159.77;;
8650;SDS011;4363;52.346;14.516;2023-12-20T02:57:27;463.07;;;176.37;;
8650;SDS011;4363;52.346;14.516;2023-12-20T02:59:53;432.93;;;159.67;;
8650;SDS011;4363;52.346;14.516;2023-12-20T03:02:19;423.70;;;156.57;;
8650;SDS011;4363;52.346;14.516;2023-12-20T03:04:45;431.47;;;163.50;;
8650;SDS011;4363;52.346;14.516;2023-12-20T03:07:11;462.60;;;173.83;;
8650;SDS011;4363;52.346;14.516;2023-12-20T03:09:37;434.30;;;166.40;;
8650;SDS011;4363;52.346;14.516;2023-12-20T03:12:03;413.70;;;156.57;;
8650;SDS011;4363;52.346;14.516;2023-12-20T03:14:29;491.80;;;182.73;;
8650;SDS011;4363;52.346;14.516;2023-12-20T03:16:55;436.43;;;161.87;;
8650;SDS011;4363;52.346;14.516;2023-12-20T03:19:21;434.77;;;161.20;;
8650;SDS011;4363;52.346;14.516;2023-12-20T03:21:47;412.17;;;149.53;;
8650;SDS011;4363;52.346;14.516;2023-12-20T03:24:13;474.83;;;181.10;;
8650;SDS011;4363;52.346;14.516;2023-12-20T03:26:39;449.23;;;170.57;;
8650;SDS011;4363;52.346;14.516;2023-12-20T03:29:05;451.97;;;168.57;;
8650;SDS011;4363;52.346;14.516;2023-12-20T03:31:31;419.40;;;156.80;;
8650;SDS011;4363;52.346;14.516;2023-12-20T03:33:57;440.90;;;162.57;;
8650;SDS011;4363;52.346;14.516;2023-12-20T03:36:23;437.80;;;164.27;;
8650;SDS011;4363;52.346;14.516;2023-12-20T03:38:49;449.47;;;170.57;;
8650;SDS011;4363;52.346;14.516;2023-12-20T03:41:15;451.13;;;168.17;;
8650;SDS011;4363;52.346;14.516;2023-12-20T03:43:40;467.57;;;177.50;;
8650;SDS011;4363;52.346;14.516;2023-12-20T03:46:08;403.57;;;150.77;;
8650;SDS011;4363;52.346;14.516;2023-12-20T03:48:34;410.20;;;155.93;;
8650;SDS011;4363;52.346;14.516;2023-12-20T03:51:00;418.17;;;159.27;;
8650;SDS011;4363;52.346;14.516;2023-12-20T03:53:26;415.87;;;154.53;;
8650;SDS011;4363;52.346;14.516;2023-12-20T03:55:52;439.07;;;165.20;;
8650;SDS011;4363;52.346;14.516;2023-12-20T03:58:18;425.30;;;155.67;;
8650;SDS011;4363;52.346;14.516;2023-12-20T04:00:44;459.00;;;172.80;;
8650;SDS011;4363;52.346;14.516;2023-12-20T04:03:10;452.77;;;167.53;;
8650;SDS011;4363;52.346;14.516;2023-12-20T04:05:38;443.33;;;166.90;;
8650;SDS011;4363;52.346;14.516;2023-12-20T04:08:05;435.13;;;166.47;;
8650;SDS011;4363;52.346;14.516;2023-12-20T04:10:31;458.33;;;177.00;;
8650;SDS011;4363;52.346;14.516;2023-12-20T04:12:57;393.97;;;145.77;;
8650;SDS011;4363;52.346;14.516;2023-12-20T04:15:23;447.00;;;168.13;;
8650;SDS011;4363;52.346;14.516;2023-12-20T04:17:49;435.80;;;159.87;;
8650;SDS011;4363;52.346;14.516;2023-12-20T04:20:14;440.50;;;163.10;;
8650;SDS011;4363;52.346;14.516;2023-12-20T04:22:40;392.07;;;143.77;;
8650;SDS011;4363;52.346;14.516;2023-12-20T04:25:07;400.70;;;147.33;;
8650;SDS011;4363;52.346;14.516;2023-12-20T04:27:33;365.23;;;136.93;;
8650;SDS011;4363;52.346;14.516;2023-12-20T04:29:59;391.37;;;142.13;;
8650;SDS011;4363;52.346;14.516;2023-12-20T04:32:25;382.27;;;141.10;;
8650;SDS011;4363;52.346;14.516;2023-12-20T04:34:51;401.87;;;146.90;;
8650;SDS011;4363;52.346;14.516;2023-12-20T04:37:17;394.80;;;146.57;;
8650;SDS011;4363;52.346;14.516;2023-12-20T04:39:43;404.23;;;148.27;;
8650;SDS011;4363;52.346;14.516;2023-12-20T04:42:09;385.47;;;143.20;;
8650;SDS011;4363;52.346;14.516;2023-12-20T04:44:35;397.17;;;145.33;;
8650;SDS011;4363;52.346;14.516;2023-12-20T04:47:01;403.70;;;146.83;;
8650;SDS011;4363;52.346;14.516;2023-12-20T04:49:28;379.77;;;137.07;;
8650;SDS011;4363;52.346;14.516;2023-12-20T04:51:54;405.13;;;148.03;;
8650;SDS011;4363;52.346;14.516;2023-12-20T04:54:20;408.97;;;150.67;;
8650;SDS011;4363;52.346;14.516;2023-12-20T04:56:46;408.97;;;149.70;;
8650;SDS011;4363;52.346;14.516;2023-12-20T04:59:12;399.77;;;147.67;;
8650;SDS011;4363;52.346;14.516;2023-12-20T05:01:38;396.87;;;148.37;;
8650;SDS011;4363;52.346;14.516;2023-12-20T05:04:04;395.33;;;147.37;;
8650;SDS011;4363;52.346;14.516;2023-12-20T05:06:30;406.90;;;152.50;;
8650;SDS011;4363;52.346;14.516;2023-12-20T05:08:56;396.53;;;147.70;;
8650;SDS011;4363;52.346;14.516;2023-12-20T05:11:22;401.53;;;146.40;;
8650;SDS011;4363;52.346;14.516;2023-12-20T05:13:48;411.93;;;150.67;;
8650;SDS011;4363;52.346;14.516;2023-12-20T05:16:14;408.07;;;148.50;;
8650;SDS011;4363;52.346;14.516;2023-12-20T05:18:42;423.67;;;157.33;;
8650;SDS011;4363;52.346;14.516;2023-12-20T05:21:08;400.70;;;143.83;;
8650;SDS011;4363;52.346;14.516;2023-12-20T05:23:34;397.47;;;142.67;;
8650;SDS011;4363;52.346;14.516;2023-12-20T05:26:00;389.20;;;142.07;;
8650;SDS011;4363;52.346;14.516;2023-12-20T05:28:26;374.33;;;136.77;;
8650;SDS011;4363;52.346;14.516;2023-12-20T05:30:52;395.43;;;145.40;;
8650;SDS011;4363;52.346;14.516;2023-12-20T05:33:18;400.10;;;146.03;;
8650;SDS011;4363;52.346;14.516;2023-12-20T05:35:44;401.60;;;146.57;;
8650;SDS011;4363;52.346;14.516;2023-12-20T05:38:10;398.43;;;145.60;;
8650;SDS011;4363;52.346;14.516;2023-12-20T05:40:36;374.37;;;138.37;;
8650;SDS011;4363;52.346;14.516;2023-12-20T05:43:02;390.85;;;144.85;;
8650;SDS011;4363;52.346;14.516;2023-12-20T05:45:28;385.57;;;144.57;;
8650;SDS011;4363;52.346;14.516;2023-12-20T05:47:54;397.30;;;146.37;;
8650;SDS011;4363;52.346;14.516;2023-12-20T05:50:20;395.47;;;145.03;;
8650;SDS011;4363;52.346;14.516;2023-12-20T05:52:46;404.80;;;148.73;;
8650;SDS011;4363;52.346;14.516;2023-12-20T05:55:12;408.83;;;149.67;;
8650;SDS011;4363;52.346;14.516;2023-12-20T05:57:38;386.77;;;140.83;;
8650;SDS011;4363;52.346;14.516;2023-12-20T06:00:04;387.43;;;140.17;;
8650;SDS011;4363;52.346;14.516;2023-12-20T06:02:31;393.30;;;143.90;;
8650;SDS011;4363;52.346;14.516;2023-12-20T06:04:57;394.20;;;143.43;;
8650;SDS011;4363;52.346;14.516;2023-12-20T06:07:23;392.43;;;146.50;;
8650;SDS011;4363;52.346;14.516;2023-12-20T06:09:49;405.00;;;147.67;;
8650;SDS011;4363;52.346;14.516;2023-12-20T06:12:16;401.63;;;147.83;;
8650;SDS011;4363;52.346;14.516;2023-12-20T06:14:41;389.50;;;145.13;;
8650;SDS011;4363;52.346;14.516;2023-12-20T06:17:07;397.77;;;146.17;;
8650;SDS011;4363;52.346;14.516;2023-12-20T06:19:33;370.93;;;138.40;;
8650;SDS011;4363;52.346;14.516;2023-12-20T06:21:59;393.17;;;145.23;;
8650;SDS011;4363;52.346;14.516;2023-12-20T06:24:25;381.83;;;140.80;;
8650;SDS011;4363;52.346;14.516;2023-12-20T06:26:53;408.20;;;153.33;;
8650;SDS011;4363;52.346;14.516;2023-12-20T06:29:20;399.00;;;147.50;;
8650;SDS011;4363;52.346;14.516;2023-12-20T06:31:46;387.90;;;142.80;;
8650;SDS011;4363;52.346;14.516;2023-12-20T06:34:12;390.23;;;148.07;;
8650;SDS011;4363;52.346;14.516;2023-12-20T06:36:38;372.13;;;139.73;;
8650;SDS011;4363;52.346;14.516;2023-12-20T06:39:03;386.97;;;145.63;;
8650;SDS011;4363;52.346;14.516;2023-12-20T06:41:30;395.00;;;147.07;;
8650;SDS011;4363;52.346;14.516;2023-12-20T06:43:55;395.20;;;144.50;;
8650;SDS011;4363;52.346;14.516;2023-12-20T06:46:21;392.60;;;144.03;;
8650;SDS011;4363;52.346;14.516;2023-12-20T06:48:47;388.80;;;145.10;;
8650;SDS011;4363;52.346;14.516;2023-12-20T06:51:14;383.33;;;141.17;;
8650;SDS011;4363;52.346;14.516;2023-12-20T06:53:40;379.43;;;138.93;;
8650;SDS011;4363;52.346;14.516;2023-12-20T06:56:07;361.77;;;133.13;;
8650;SDS011;4363;52.346;14.516;2023-12-20T06:58:33;387.13;;;144.87;;
8650;SDS011;4363;52.346;14.516;2023-12-20T07:01:00;377.67;;;140.23;;
8650;SDS011;4363;52.346;14.516;2023-12-20T07:03:26;394.17;;;144.53;;
8650;SDS011;4363;52.346;14.516;2023-12-20T07:05:52;393.03;;;142.50;;
8650;SDS011;4363;52.346;14.516;2023-12-20T07:08:18;391.07;;;143.03;;
8650;SDS011;4363;52.346;14.516;2023-12-20T07:10:44;404.27;;;151.33;;
8650;SDS011;4363;52.346;14.516;2023-12-20T07:13:10;392.90;;;142.30;;
8650;SDS011;4363;52.346;14.516;2023-12-20T07:15:37;379.93;;;141.73;;
8650;SDS011;4363;52.346;14.516;2023-12-20T07:18:03;386.37;;;140.17;;
8650;SDS011;4363;52.346;14.516;2023-12-20T07:20:30;389.83;;;143.57;;
8650;SDS011;4363;52.346;14.516;2023-12-20T07:22:56;387.63;;;138.27;;
8650;SDS011;4363;52.346;14.516;2023-12-20T07:25:22;394.57;;;141.20;;
8650;SDS011;4363;52.346;14.516;2023-12-20T07:27:48;395.73;;;145.93;;
8650;SDS011;4363;52.346;14.516;2023-12-20T07:30:14;378.13;;;138.50;;
8650;SDS011;4363;52.346;14.516;2023-12-20T07:32:40;374.27;;;137.00;;
8650;SDS011;4363;52.346;14.516;2023-12-20T07:35:06;380.07;;;137.67;;
8650;SDS011;4363;52.346;14.516;2023-12-20T07:37:32;364.60;;;135.37;;
8650;SDS011;4363;52.346;14.516;2023-12-20T07:39:58;374.30;;;138.90;;
8650;SDS011;4363;52.346;14.516;2023-12-20T07:42:24;377.97;;;144.10;;
8650;SDS011;4363;52.346;14.516;2023-12-20T07:44:50;368.27;;;139.97;;
8650;SDS011;4363;52.346;14.516;2023-12-20T07:47:16;369.97;;;141.50;;
8650;SDS011;4363;52.346;14.516;2023-12-20T07:49:44;367.67;;;142.27;;
8650;SDS011;4363;52.346;14.516;2023-12-20T07:52:10;376.63;;;142.63;;
8650;SDS011;4363;52.346;14.516;2023-12-20T07:54:36;395.87;;;154.67;;
8650;SDS011;4363;52.346;14.516;2023-12-20T07:57:02;369.60;;;139.63;;
8650;SDS011;4363;52.346;14.516;2023-12-20T07:59:28;370.33;;;137.00;;
8650;SDS011;4363;52.346;14.516;2023-12-20T08:01:54;377.67;;;143.27;;
8650;SDS011;4363;52.346;14.516;2023-12-20T08:04:20;392.73;;;145.23;;
8650;SDS011;4363;52.346;14.516;2023-12-20T08:06:46;412.60;;;148.77;;
8650;SDS011;4363;52.346;14.516;2023-12-20T08:09:12;386.73;;;144.13;;
8650;SDS011;4363;52.346;14.516;2023-12-20T08:11:38;382.03;;;141.77;;
8650;SDS011;4363;52.346;14.516;2023-12-20T08:14:04;374.57;;;137.93;;
8650;SDS011;4363;52.346;14.516;2023-12-20T08:16:30;387.27;;;140.27;;
8650;SDS011;4363;52.346;14.516;2023-12-20T08:18:56;401.37;;;146.50;;
8650;SDS011;4363;52.346;14.516;2023-12-20T08:21:22;397.57;;;146.50;;
8650;SDS011;4363;52.346;14.516;2023-12-20T08:23:48;379.77;;;136.77;;
8650;SDS011;4363;52.346;14.516;2023-12-20T08:26:14;393.83;;;142.17;;
8650;SDS011;4363;52.346;14.516;2023-12-20T08:28:45;386.27;;;138.97;;
8650;SDS011;4363;52.346;14.516;2023-12-20T08:31:17;396.23;;;143.57;;
8650;SDS011;4363;52.346;14.516;2023-12-20T08:33:46;385.97;;;140.67;;
8650;SDS011;4363;52.346;14.516;2023-12-20T08:36:13;378.40;;;137.90;;
8650;SDS011;4363;52.346;14.516;2023-12-20T08:38:39;385.27;;;141.87;;
8650;SDS011;4363;52.346;14.516;2023-12-20T08:41:06;397.60;;;147.47;;
8650;SDS011;4363;52.346;14.516;2023-12-20T08:43:32;401.33;;;144.37;;
8650;SDS011;4363;52.346;14.516;2023-12-20T08:45:58;380.87;;;138.67;;
8650;SDS011;4363;52.346;14.516;2023-12-20T08:48:24;412.13;;;150.37;;
8650;SDS011;4363;52.346;14.516;2023-12-20T08:50:50;386.00;;;141.23;;
8650;SDS011;4363;52.346;14.516;2023-12-20T08:53:17;394.07;;;145.37;;
8650;SDS011;4363;52.346;14.516;2023-12-20T08:55:43;380.47;;;139.67;;
8650;SDS011;4363;52.346;14.516;2023-12-20T08:58:09;406.00;;;145.23;;
8650;SDS011;4363;52.346;14.516;2023-12-20T09:00:35;388.00;;;140.93;;
8650;SDS011;4363;52.346;14.516;2023-12-20T09:03:01;386.83;;;138.53;;
8650;SDS011;4363;52.346;14.516;2023-12-20T09:05:27;390.53;;;140.57;;
8650;SDS011;4363;52.346;14.516;2023-12-20T09:07:54;392.03;;;144.63;;
8650;SDS011;4363;52.346;14.516;2023-12-20T09:10:19;409.73;;;146.73;;
8650;SDS011;4363;52.346;14.516;2023-12-20T09:12:50;387.77;;;140.27;;
8650;SDS011;4363;52.346;14.516;2023-12-20T09:15:16;398.57;;;141.23;;
8650;SDS011;4363;52.346;14.516;2023-12-20T09:17:42;391.07;;;139.30;;
8650;SDS011;4363;52.346;14.516;2023-12-20T09:20:09;371.63;;;132.60;;
8650;SDS011;4363;52.346;14.516;2023-12-20T09:22:35;391.93;;;139.77;;
8650;SDS011;4363;52.346;14.516;2023-12-20T09:25:03;391.97;;;141.77;;
8650;SDS011;4363;52.346;14.516;2023-12-20T09:27:29;390.53;;;142.20;;
8650;SDS011;4363;52.346;14.516;2023-12-20T09:29:55;402.93;;;146.87;;
8650;SDS011;4363;52.346;14.516;2023-12-20T09:32:21;404.07;;;148.80;;
8650;SDS011;4363;52.346;14.516;2023-12-20T09:34:47;393.33;;;141.30;;
8650;SDS011;4363;52.346;14.516;2023-12-20T09:37:13;390.97;;;140.50;;
8650;SDS011;4363;52.346;14.516;2023-12-20T09:39:39;405.47;;;146.73;;
8650;SDS011;4363;52.346;14.516;2023-12-20T09:42:05;388.10;;;142.17;;
8650;SDS011;4363;52.346;14.516;2023-12-20T09:44:32;393.73;;;143.50;;
8650;SDS011;4363;52.346;14.516;2023-12-20T09:46:59;385.73;;;142.87;;
8650;SDS011;4363;52.346;14.516;2023-12-20T09:49:27;385.27;;;143.07;;
8650;SDS011;4363;52.346;14.516;2023-12-20T09:51:54;382.77;;;140.17;;
8650;SDS011;4363;52.346;14.516;2023-12-20T09:54:21;397.30;;;142.70;;
8650;SDS011;4363;52.346;14.516;2023-12-20T09:56:47;389.43;;;138.47;;
8650;SDS011;4363;52.346;14.516;2023-12-20T09:59:13;399.20;;;144.77;;
8650;SDS011;4363;52.346;14.516;2023-12-20T10:01:40;403.83;;;145.63;;
8650;SDS011;4363;52.346;14.516;2023-12-20T10:04:06;395.07;;;143.20;;
8650;SDS011;4363;52.346;14.516;2023-12-20T10:06:34;385.90;;;143.13;;
8650;SDS011;4363;52.346;14.516;2023-12-20T10:09:00;393.27;;;144.67;;
8650;SDS011;4363;52.346;14.516;2023-12-20T10:11:28;393.23;;;140.17;;
8650;SDS011;4363;52.346;14.516;2023-12-20T10:13:58;416.73;;;153.60;;
8650;SDS011;4363;52.346;14.516;2023-12-20T10:16:26;395.47;;;143.73;;
8650;SDS011;4363;52.346;14.516;2023-12-20T10:18:52;386.53;;;139.63;;
8650;SDS011;4363;52.346;14.516;2023-12-20T10:21:18;393.63;;;140.67;;
8650;SDS011;4363;52.346;14.516;2023-12-20T10:23:45;419.83;;;175.50;;
8650;SDS011;4363;52.346;14.516;2023-12-20T10:26:18;464.43;;;195.03;;
8650;SDS011;4363;52.346;14.516;2023-12-20T10:28:45;431.27;;;176.30;;
8650;SDS011;4363;52.346;14.516;2023-12-20T10:31:21;463.80;;;190.07;;
8650;SDS011;4363;52.346;14.516;2023-12-20T10:33:51;493.23;;;204.00;;
8650;SDS011;4363;52.346;14.516;2023-12-20T10:36:17;489.40;;;202.80;;
8650;SDS011;4363;52.346;14.516;2023-12-20T10:38:43;474.23;;;195.73;;
8650;SDS011;4363;52.346;14.516;2023-12-20T10:41:10;412.00;;;165.70;;
8650;SDS011;4363;52.346;14.516;2023-12-20T10:43:37;471.00;;;199.80;;
8650;SDS011;4363;52.346;14.516;2023-12-20T10:46:03;438.40;;;176.97;;
8650;SDS011;4363;52.346;14.516;2023-12-20T10:48:30;478.97;;;197.77;;
8650;SDS011;4363;52.346;14.516;2023-12-20T10:50:57;467.80;;;195.90;;
8650;SDS011;4363;52.346;14.516;2023-12-20T10:53:24;399.50;;;165.37;;
8650;SDS011;4363;52.346;14.516;2023-12-20T10:55:51;452.07;;;190.97;;
8650;SDS011;4363;52.346;14.516;2023-12-20T10:58:18;437.83;;;180.77;;
8650;SDS011;4363;52.346;14.516;2023-12-20T11:00:45;435.60;;;174.90;;
8650;SDS011;4363;52.346;14.516;2023-12-20T11:03:13;426.10;;;175.33;;
8650;SDS011;4363;52.346;14.516;2023-12-20T11:05:49;476.47;;;199.47;;
8650;SDS011;4363;52.346;14.516;2023-12-20T11:08:32;414.07;;;168.83;;
8650;SDS011;4363;52.346;14.516;2023-12-20T11:11:12;461.80;;;192.23;;
8650;SDS011;4363;52.346;14.516;2023-12-20T11:13:44;425.97;;;175.00;;
8650;SDS011;4363;52.346;14.516;2023-12-20T11:16:13;421.17;;;172.60;;
8650;SDS011;4363;52.346;14.516;2023-12-20T11:18:40;431.20;;;177.70;;
8650;SDS011;4363;52.346;14.516;2023-12-20T11:21:07;451.60;;;187.20;;
8650;SDS011;4363;52.346;14.516;2023-12-20T11:23:33;427.40;;;176.97;;
8650;SDS011;4363;52.346;14.516;2023-12-20T11:25:59;424.23;;;175.67;;
8650;SDS011;4363;52.346;14.516;2023-12-20T11:28:26;418.57;;;173.20;;
8650;SDS011;4363;52.346;14.516;2023-12-20T11:30:53;441.37;;;179.63;;
8650;SDS011;4363;52.346;14.516;2023-12-20T11:33:23;443.90;;;185.10;;
8650;SDS011;4363;52.346;14.516;2023-12-20T11:35:49;428.97;;;175.83;;
8650;SDS011;4363;52.346;14.516;2023-12-20T11:38:15;450.70;;;195.27;;
8650;SDS011;4363;52.346;14.516;2023-12-20T11:40:42;442.67;;;181.87;;
8650;SDS011;4363;52.346;14.516;2023-12-20T11:43:08;474.97;;;202.60;;
8650;SDS011;4363;52.346;14.516;2023-12-20T11:45:34;422.23;;;176.07;;
8650;SDS011;4363;52.346;14.516;2023-12-20T11:48:04;437.70;;;182.33;;
8650;SDS011;4363;52.346;14.516;2023-12-20T11:50:30;422.80;;;172.43;;
8650;SDS011;4363;52.346;14.516;2023-12-20T11:52:56;436.73;;;183.27;;
8650;SDS011;4363;52.346;14.516;2023-12-20T11:55:22;421.90;;;176.83;;
8650;SDS011;4363;52.346;14.516;2023-12-20T11:57:49;436.77;;;183.27;;
8650;SDS011;4363;52.346;14.516;2023-12-20T12:00:15;443.00;;;181.07;;
8650;SDS011;4363;52.346;14.516;2023-12-20T12:02:42;422.90;;;174.67;;
8650;SDS011;4363;52.346;14.516;2023-12-20T12:05:08;445.37;;;186.53;;
8650;SDS011;4363;52.346;14.516;2023-12-20T12:07:34;434.07;;;180.90;;
8650;SDS011;4363;52.346;14.516;2023-12-20T12:10:00;439.17;;;182.33;;
8650;SDS011;4363;52.346;14.516;2023-12-20T12:12:26;420.37;;;167.73;;
8650;SDS011;4363;52.346;14.516;2023-12-20T12:14:53;439.77;;;182.97;;
8650;SDS011;4363;52.346;14.516;2023-12-20T12:17:19;425.60;;;173.63;;
8650;SDS011;4363;52.346;14.516;2023-12-20T12:19:45;477.73;;;205.10;;
8650;SDS011;4363;52.346;14.516;2023-12-20T12:22:12;444.43;;;180.83;;
8650;SDS011;4363;52.346;14.516;2023-12-20T12:24:48;411.03;;;168.70;;
8650;SDS011;4363;52.346;14.516;2023-12-20T12:27:14;422.43;;;172.13;;
8650;SDS011;4363;52.346;14.516;2023-12-20T12:29:41;425.27;;;175.23;;
8650;SDS011;4363;52.346;14.516;2023-12-20T12:32:25;470.70;;;203.47;;
8650;SDS011;4363;52.346;14.516;2023-12-20T12:34:51;482.80;;;207.73;;
8650;SDS011;4363;52.346;14.516;2023-12-20T12:37:17;414.13;;;171.43;;
8650;SDS011;4363;52.346;14.516;2023-12-20T12:39:43;468.70;;;203.63;;
8650;SDS011;4363;52.346;14.516;2023-12-20T12:42:09;440.23;;;184.77;;
8650;SDS011;4363;52.346;14.516;2023-12-20T12:44:35;492.63;;;210.77;;
8650;SDS011;4363;52.346;14.516;2023-12-20T12:47:01;477.83;;;208.67;;
8650;SDS011;4363;52.346;14.516;2023-12-20T12:49:28;526.07;;;231.90;;
8650;SDS011;4363;52.346;14.516;2023-12-20T12:51:54;508.90;;;222.23;;
8650;SDS011;4363;52.346;14.516;2023-12-20T12:54:23;494.20;;;213.57;;
8650;SDS011;4363;52.346;14.516;2023-12-20T12:56:49;423.33;;;175.03;;
8650;SDS011;4363;52.346;14.516;2023-12-20T12:59:18;444.23;;;183.47;;
8650;SDS011;4363;52.346;14.516;2023-12-20T13:01:44;434.93;;;187.53;;
8650;SDS011;4363;52.346;14.516;2023-12-20T13:04:10;503.60;;;215.53;;
8650;SDS011;4363;52.346;14.516;2023-12-20T13:06:39;416.40;;;169.77;;
8650;SDS011;4363;52.346;14.516;2023-12-20T13:09:07;464.97;;;196.33;;
8650;SDS011;4363;52.346;14.516;2023-12-20T13:11:34;437.23;;;182.30;;
8650;SDS011;4363;52.346;14.516;2023-12-20T13:14:00;438.93;;;183.70;;
8650;SDS011;4363;52.346;14.516;2023-12-20T13:16:28;409.03;;;163.43;;
8650;SDS011;4363;52.346;14.516;2023-12-20T13:18:54;427.67;;;169.90;;
8650;SDS011;4363;52.346;14.516;2023-12-20T13:21:21;457.57;;;193.27;;
8650;SDS011;4363;52.346;14.516;2023-12-20T13:23:47;451.10;;;187.27;;
8650;SDS011;4363;52.346;14.516;2023-12-20T13:26:13;442.50;;;180.80;;
8650;SDS011;4363;52.346;14.516;2023-12-20T13:28:40;453.43;;;189.23;;
8650;SDS011;4363;52.346;14.516;2023-12-20T13:31:06;469.23;;;198.30;;
8650;SDS011;4363;52.346;14.516;2023-12-20T13:33:32;499.87;;;215.57;;
8650;SDS011;4363;52.346;14.516;2023-12-20T13:35:58;429.90;;;175.80;;
8650;SDS011;4363;52.346;14.516;2023-12-20T13:38:24;412.30;;;171.77;;
8650;SDS011;4363;52.346;14.516;2023-12-20T13:40:50;458.17;;;192.23;;
8650;SDS011;4363;52.346;14.516;2023-12-20T13:43:16;430.53;;;178.80;;
8650;SDS011;4363;52.346;14.516;2023-12-20T13:45:46;424.17;;;173.47;;
8650;SDS011;4363;52.346;14.516;2023-12-20T13:48:11;450.93;;;189.50;;
8650;SDS011;4363;52.346;14.516;2023-12-20T13:50:38;435.27;;;180.00;;
8650;SDS011;4363;52.346;14.516;2023-12-20T13:53:04;439.73;;;182.63;;
8650;SDS011;4363;52.346;14.516;2023-12-20T13:55:30;427.07;;;176.10;;
8650;SDS011;4363;52.346;14.516;2023-12-20T13:57:56;429.57;;;175.00;;
8650;SDS011;4363;52.346;14.516;2023-12-20T14:00:22;427.13;;;177.37;;
8650;SDS011;4363;52.346;14.516;2023-12-20T14:02:48;456.13;;;192.67;;
8650;SDS011;4363;52.346;14.516;2023-12-20T14:05:15;463.33;;;194.60;;
8650;SDS011;4363;52.346;14.516;2023-12-20T14:07:43;424.43;;;169.13;;